Time;durP1;ratioP1;P1;durP2;ratioP2;P2;SDS_P1;SDS_P2;PMS_P1;PMS_P2;Temp;Humidity;BMP_temperature;BMP_pressure;BME280_temperature;BME280_humidity;BME280_pressure;Samples;Min_cycle;Max_cycle;Signal;HPM_P1;HPM_P2
2022/01/02 00:01:09;;;;;;;4.07;2.20;;;12.70;99.90;;;;;;4968124;28;20399;-54
2022/01/02 00:03:38;;;;;;;4.25;2.03;;;12.70;99.90;;;;;;4967411;28;20543;-52
2022/01/02 00:06:05;;;;;;;5.45;2.55;;;12.70;99.90;;;;;;4969034;28;20803;-54
2022/01/02 00:08:37;;;;;;;5.88;2.65;;;12.70;99.90;;;;;;4970339;28;20450;-52
2022/01/02 00:11:04;;;;;;;3.83;2.60;;;12.60;99.90;;;;;;4969982;28;20384;-53
2022/01/02 00:13:36;;;;;;;5.13;2.30;;;12.60;99.90;;;;;;4971043;28;20772;-53
2022/01/02 00:16:07;;;;;;;4.82;2.58;;;12.60;99.90;;;;;;4967410;28;20467;-53
2022/01/02 00:18:36;;;;;;;5.00;2.70;;;12.60;99.90;;;;;;4966520;28;20476;-55
2022/01/02 00:21:03;;;;;;;3.28;2.20;;;12.60;99.90;;;;;;4966877;28;20462;-54
2022/01/02 00:23:33;;;;;;;5.47;2.40;;;12.60;99.90;;;;;;4969265;28;20396;-54
2022/01/02 00:26:05;;;;;;;4.82;2.42;;;12.60;99.90;;;;;;4970223;28;20849;-50
2022/01/02 00:28:31;;;;;;;5.15;2.22;;;12.50;99.90;;;;;;4970545;28;20384;-54
2022/01/02 00:30:58;;;;;;;5.63;2.38;;;12.50;99.90;;;;;;4970866;28;20443;-53
2022/01/02 00:33:25;;;;;;;3.90;2.30;;;12.50;99.90;;;;;;4972853;28;20479;-54
2022/01/02 00:35:50;;;;;;;4.60;2.00;;;12.50;99.90;;;;;;4972951;28;20396;-53
2022/01/02 00:38:20;;;;;;;4.53;2.30;;;12.50;99.90;;;;;;4972786;28;20415;-56
2022/01/02 00:40:48;;;;;;;4.85;2.40;;;12.40;99.90;;;;;;4970127;28;20440;-52
2022/01/02 00:43:22;;;;;;;6.38;2.42;;;12.40;99.90;;;;;;4970991;28;20657;-54
2022/01/02 00:45:51;;;;;;;5.20;2.40;;;12.40;99.90;;;;;;4971246;28;20392;-52
2022/01/02 00:48:29;;;;;;;4.50;2.30;;;12.40;99.90;;;;;;4970211;28;20483;-54
2022/01/02 00:51:09;;;;;;;6.03;2.50;;;12.40;99.90;;;;;;4970815;28;20408;-52
2022/01/02 00:53:36;;;;;;;6.30;2.20;;;12.40;99.90;;;;;;4971486;28;20436;-55
2022/01/02 00:56:03;;;;;;;5.00;2.70;;;12.40;99.90;;;;;;4973382;28;20416;-52
2022/01/02 00:58:48;;;;;;;4.00;2.53;;;12.40;99.90;;;;;;4972703;28;20453;-56
2022/01/02 01:01:18;;;;;;;6.78;2.85;;;12.40;99.90;;;;;;4973543;28;20404;-50
2022/01/02 01:03:49;;;;;;;4.15;2.65;;;12.40;99.90;;;;;;4972101;28;20403;-53
2022/01/02 01:06:17;;;;;;;4.43;2.40;;;12.30;99.90;;;;;;4971722;28;20400;-53
2022/01/02 01:08:43;;;;;;;6.00;2.80;;;12.40;99.90;;;;;;4973021;28;20400;-54
2022/01/02 01:11:09;;;;;;;5.75;2.58;;;12.40;99.90;;;;;;4972386;28;20730;-52
2022/01/02 01:13:35;;;;;;;4.18;2.67;;;12.30;99.90;;;;;;4971381;28;20392;-52
2022/01/02 01:16:03;;;;;;;4.28;2.83;;;12.30;99.90;;;;;;4970958;28;20423;-55
2022/01/02 01:18:29;;;;;;;3.47;2.20;;;12.30;99.90;;;;;;4972766;28;20399;-53
2022/01/02 01:20:54;;;;;;;6.72;2.83;;;12.40;99.90;;;;;;4973360;28;20427;-53
2022/01/02 01:23:20;;;;;;;4.63;2.40;;;12.30;99.90;;;;;;4972388;28;20499;-54
2022/01/02 01:25:49;;;;;;;5.95;2.80;;;12.30;99.90;;;;;;4971470;28;20690;-54
2022/01/02 01:28:16;;;;;;;8.05;3.28;;;12.20;99.90;;;;;;4971688;28;20395;-49
2022/01/02 01:30:42;;;;;;;5.95;2.85;;;12.20;99.90;;;;;;4971074;28;20725;-54
2022/01/02 01:33:08;;;;;;;4.05;2.55;;;12.20;99.90;;;;;;4971186;28;20581;-55
2022/01/02 01:35:34;;;;;;;5.05;3.03;;;12.20;99.90;;;;;;4971158;28;20704;-50
2022/01/02 01:38:00;;;;;;;6.53;3.50;;;12.10;99.90;;;;;;4971421;28;20729;-55
2022/01/02 01:40:33;;;;;;;5.25;3.05;;;12.10;99.90;;;;;;4970433;28;20408;-55
2022/01/02 01:43:01;;;;;;;5.45;2.95;;;12.10;99.90;;;;;;4970935;28;20407;-57
2022/01/02 01:47:57;;;;;;;5.10;3.25;;;12.10;99.90;;;;;;4971061;28;20471;-52
2022/01/02 01:50:33;;;;;;;5.25;3.35;;;12.00;99.90;;;;;;4971454;28;20505;-52
2022/01/02 01:52:58;;;;;;;5.00;3.45;;;12.00;99.90;;;;;;4971696;28;20400;-51
2022/01/02 01:55:24;;;;;;;6.45;2.97;;;12.10;99.90;;;;;;4972163;28;20507;-53
2022/01/02 01:57:52;;;;;;;4.82;3.00;;;12.10;99.90;;;;;;4972547;28;20705;-56
2022/01/02 02:00:20;;;;;;;6.90;3.50;;;12.10;99.90;;;;;;4973040;28;20412;-52
2022/01/02 02:02:46;;;;;;;4.82;3.10;;;12.10;99.90;;;;;;4972960;28;20395;-56
2022/01/02 02:05:13;;;;;;;6.63;3.53;;;12.00;99.90;;;;;;4972197;28;20483;-52
2022/01/02 02:07:40;;;;;;;5.38;2.97;;;12.00;99.90;;;;;;4972760;28;20396;-51
2022/01/02 02:10:18;;;;;;;5.45;3.28;;;12.00;99.90;;;;;;4973377;28;20392;-52
2022/01/02 02:12:47;;;;;;;9.23;3.63;;;12.00;99.90;;;;;;4973524;28;20400;-56
2022/01/02 02:15:15;;;;;;;6.57;3.67;;;12.00;99.90;;;;;;4971924;28;20863;-54
2022/01/02 02:17:44;;;;;;;6.53;3.33;;;12.00;99.90;;;;;;4972447;28;20404;-49
2022/01/02 02:20:16;;;;;;;7.35;3.80;;;11.90;99.90;;;;;;4972507;28;20423;-56
2022/01/02 02:22:45;;;;;;;5.28;3.65;;;11.80;99.90;;;;;;4972071;28;20423;-56
2022/01/02 02:25:13;;;;;;;6.35;4.25;;;11.60;99.90;;;;;;4970902;28;20632;-52
2022/01/02 02:27:39;;;;;;;7.18;4.50;;;11.60;99.90;;;;;;4970425;28;20673;-49
2022/01/02 02:30:05;;;;;;;10.07;4.37;;;11.50;99.90;;;;;;4971055;28;20395;-52
2022/01/02 02:32:32;;;;;;;8.07;4.50;;;11.50;99.90;;;;;;4969867;28;20455;-50
2022/01/02 02:34:57;;;;;;;7.53;4.35;;;11.40;99.90;;;;;;4974046;28;20411;-53
2022/01/02 02:37:25;;;;;;;9.20;4.50;;;11.30;99.90;;;;;;4975013;28;20408;-53
2022/01/02 02:39:51;;;;;;;6.90;4.32;;;11.30;99.90;;;;;;4975908;28;20479;-51
2022/01/02 02:42:31;;;;;;;8.43;4.60;;;11.40;99.90;;;;;;4975379;28;20388;-50
2022/01/02 02:50:44;;;;;;;7.30;4.70;;;11.40;99.90;;;;;;4977276;28;20734;-54
2022/01/02 02:53:10;;;;;;;8.63;5.03;;;11.30;99.90;;;;;;4974856;28;20396;-50
2022/01/02 02:55:43;;;;;;;6.30;4.27;;;11.30;99.90;;;;;;4975500;28;20423;-56
2022/01/02 02:58:37;;;;;;;7.15;4.75;;;11.20;99.90;;;;;;4976547;28;20498;-50
2022/01/02 03:00:54;;;;;;;8.57;5.10;;;11.20;99.90;;;;;;4977148;28;20416;-49
2022/01/02 03:03:20;;;;;;;7.40;4.97;;;11.30;99.90;;;;;;4975848;28;20388;-50
2022/01/02 03:05:46;;;;;;;7.25;4.75;;;11.20;99.90;;;;;;4976932;28;20403;-51
2022/01/02 03:08:11;;;;;;;7.63;5.00;;;11.30;99.90;;;;;;4975276;28;20793;-53
2022/01/02 03:10:37;;;;;;;6.50;4.32;;;11.30;99.90;;;;;;4974574;28;20404;-50
2022/01/02 03:13:02;;;;;;;8.77;4.80;;;11.20;99.90;;;;;;4974213;28;20824;-53
2022/01/02 03:15:28;;;;;;;9.37;4.93;;;11.30;99.90;;;;;;4973246;28;20797;-50
2022/01/02 03:17:53;;;;;;;6.68;4.90;;;11.30;99.90;;;;;;4973797;28;20454;-51
2022/01/02 03:20:19;;;;;;;7.90;4.70;;;11.30;99.90;;;;;;4974234;28;20416;-53
2022/01/02 03:22:44;;;;;;;8.82;5.05;;;11.30;99.90;;;;;;4973719;28;20399;-53
2022/01/02 03:25:13;;;;;;;8.93;5.00;;;11.30;99.90;;;;;;4973763;28;20483;-55
2022/01/02 03:27:40;;;;;;;6.80;4.60;;;11.20;99.90;;;;;;4974666;28;20388;-54
2022/01/02 03:30:06;;;;;;;7.07;4.90;;;11.20;99.90;;;;;;4975311;28;20651;-51
2022/01/02 03:32:32;;;;;;;7.13;4.40;;;11.20;99.90;;;;;;4976046;28;20399;-54
2022/01/02 03:34:57;;;;;;;10.70;4.90;;;11.20;99.90;;;;;;4976443;28;20392;-52
2022/01/02 03:37:27;;;;;;;6.63;4.83;;;11.20;99.90;;;;;;4975902;28;20808;-54
2022/01/02 03:39:53;;;;;;;8.32;4.80;;;11.20;99.90;;;;;;4977303;28;20833;-55
2022/01/02 03:42:19;;;;;;;8.67;5.30;;;11.20;99.90;;;;;;4976061;28;20490;-54
2022/01/02 03:44:44;;;;;;;11.10;6.17;;;11.20;99.90;;;;;;4975300;28;20443;-53
2022/01/02 03:47:09;;;;;;;7.45;5.47;;;11.10;99.90;;;;;;4974249;28;20645;-54
2022/01/02 03:49:35;;;;;;;7.13;5.43;;;11.10;99.90;;;;;;4973898;28;20412;-51
2022/01/02 03:52:01;;;;;;;9.13;5.90;;;11.10;99.90;;;;;;4972315;28;20404;-53
2022/01/02 03:54:26;;;;;;;7.40;5.40;;;11.10;99.90;;;;;;4972772;28;20412;-51
2022/01/02 03:56:53;;;;;;;10.48;5.82;;;11.10;99.90;;;;;;4971281;28;20400;-52
2022/01/02 03:59:19;;;;;;;8.88;5.80;;;11.10;99.90;;;;;;4972279;28;20552;-51
2022/01/02 04:01:44;;;;;;;9.40;6.17;;;11.10;99.90;;;;;;4972893;28;20416;-51
2022/01/02 04:04:10;;;;;;;9.57;6.50;;;11.10;99.90;;;;;;4974344;28;20389;-50
2022/01/02 04:06:35;;;;;;;9.10;6.00;;;11.10;99.90;;;;;;4974640;28;20406;-54
2022/01/02 04:09:01;;;;;;;9.47;6.47;;;11.10;99.90;;;;;;4972038;28;20495;-52
2022/01/02 04:11:26;;;;;;;8.80;6.50;;;11.10;99.90;;;;;;4974647;28;20489;-54
2022/01/02 04:13:52;;;;;;;9.20;6.70;;;11.10;99.90;;;;;;4974540;28;20388;-50
2022/01/02 04:16:17;;;;;;;11.63;7.30;;;11.00;99.90;;;;;;4974205;28;20669;-56
2022/01/02 04:18:43;;;;;;;7.60;6.57;;;11.00;99.90;;;;;;4975178;28;20407;-55
2022/01/02 04:21:08;;;;;;;8.23;6.68;;;11.00;99.90;;;;;;4975802;28;20451;-52
2022/01/02 04:23:35;;;;;;;9.73;6.77;;;10.90;99.90;;;;;;4974694;28;20396;-53
2022/01/02 04:26:01;;;;;;;10.20;7.22;;;10.90;99.90;;;;;;4973706;28;20415;-51
2022/01/02 04:28:26;;;;;;;11.23;6.90;;;10.90;99.90;;;;;;4975783;28;20392;-51
2022/01/02 04:30:52;;;;;;;12.20;7.10;;;10.90;99.90;;;;;;4975100;28;20476;-53
2022/01/02 04:33:17;;;;;;;10.50;7.35;;;10.90;99.90;;;;;;4976228;28;20777;-51
2022/01/02 04:35:43;;;;;;;11.83;7.30;;;10.90;99.90;;;;;;4974637;28;20419;-55
2022/01/02 04:38:09;;;;;;;9.97;7.60;;;10.90;99.90;;;;;;4974670;28;20405;-55
2022/01/02 04:40:34;;;;;;;9.85;7.20;;;10.90;99.90;;;;;;4973389;28;20716;-55
2022/01/02 04:42:59;;;;;;;11.30;7.67;;;10.90;99.90;;;;;;4973520;28;20394;-52
2022/01/02 04:45:25;;;;;;;10.43;7.87;;;10.90;99.90;;;;;;4971859;28;20400;-52
2022/01/02 04:47:51;;;;;;;10.68;7.55;;;10.90;99.90;;;;;;4972998;28;20388;-52
2022/01/02 04:50:16;;;;;;;10.23;7.77;;;10.90;99.90;;;;;;4971945;28;20667;-52
2022/01/02 04:52:42;;;;;;;10.63;7.53;;;10.90;99.90;;;;;;4973571;28;20436;-52
2022/01/02 04:55:07;;;;;;;12.77;8.00;;;10.90;99.90;;;;;;4973445;28;20426;-56
2022/01/02 04:57:34;;;;;;;9.80;8.05;;;10.90;99.90;;;;;;4974672;28;20410;-54
2022/01/02 04:59:59;;;;;;;11.45;8.00;;;10.90;99.90;;;;;;4974263;28;20692;-52
2022/01/02 05:02:25;;;;;;;12.60;8.57;;;10.90;99.90;;;;;;4971189;28;20792;-53
2022/01/02 05:04:51;;;;;;;10.80;8.10;;;10.90;99.90;;;;;;4971203;28;20575;-55
2022/01/02 05:07:18;;;;;;;12.80;8.53;;;10.90;99.90;;;;;;4973022;28;20466;-54
2022/01/02 05:09:43;;;;;;;13.85;8.70;;;10.90;99.90;;;;;;4973122;28;20751;-49
2022/01/02 05:12:09;;;;;;;12.63;8.67;;;10.90;99.90;;;;;;4973078;28;20935;-50
2022/01/02 05:14:35;;;;;;;12.67;9.03;;;10.90;99.90;;;;;;4969844;28;20587;-51
2022/01/02 05:17:00;;;;;;;10.23;8.53;;;10.80;99.90;;;;;;4973439;28;20685;-52
2022/01/02 05:19:25;;;;;;;10.75;8.30;;;10.90;99.90;;;;;;4972313;28;20408;-52
2022/01/02 05:21:51;;;;;;;11.03;8.00;;;10.90;99.90;;;;;;4970509;28;20416;-54
2022/01/02 05:24:16;;;;;;;12.10;8.00;;;11.00;99.90;;;;;;4971557;28;20400;-52
2022/01/02 05:26:42;;;;;;;12.97;8.47;;;10.90;99.90;;;;;;4971120;28;20384;-53
2022/01/02 05:29:08;;;;;;;10.90;8.17;;;10.90;99.90;;;;;;4972643;28;20714;-55
2022/01/02 05:31:34;;;;;;;11.50;8.50;;;10.90;99.90;;;;;;4972842;28;20412;-49
2022/01/02 05:33:59;;;;;;;12.30;8.10;;;10.90;99.90;;;;;;4972733;28;20392;-54
2022/01/02 05:36:25;;;;;;;10.80;8.07;;;10.90;99.90;;;;;;4972558;28;20484;-52
2022/01/02 05:38:51;;;;;;;12.20;8.32;;;10.90;99.90;;;;;;4972128;28;20645;-50
2022/01/02 05:41:18;;;;;;;11.43;8.60;;;10.90;99.90;;;;;;4971743;28;21093;-50
2022/01/02 05:43:43;;;;;;;10.85;8.43;;;10.90;99.90;;;;;;4970737;28;20392;-52
2022/01/02 05:46:09;;;;;;;11.88;8.63;;;10.90;99.90;;;;;;4971835;28;20765;-51
2022/01/02 05:48:36;;;;;;;12.47;8.80;;;10.90;99.90;;;;;;4971024;28;20816;-53
2022/01/02 05:51:02;;;;;;;13.93;9.45;;;10.90;99.90;;;;;;4969416;28;20876;-54
2022/01/02 05:53:29;;;;;;;14.75;9.18;;;10.90;99.90;;;;;;4969679;28;20400;-51
2022/01/02 05:55:55;;;;;;;13.30;9.27;;;10.90;99.90;;;;;;4968400;28;20756;-52
2022/01/02 05:58:21;;;;;;;13.35;9.90;;;10.80;99.90;;;;;;4970259;28;20466;-53
2022/01/02 06:00:47;;;;;;;15.35;9.45;;;10.80;99.90;;;;;;4969941;28;20515;-53
2022/01/02 06:03:12;;;;;;;10.43;8.82;;;10.90;99.90;;;;;;4969032;28;21301;-55
2022/01/02 06:05:38;;;;;;;16.52;9.60;;;10.90;99.90;;;;;;4968237;28;20404;-53
2022/01/02 06:08:03;;;;;;;14.57;9.37;;;10.90;99.90;;;;;;4967590;28;20403;-49
2022/01/02 06:10:29;;;;;;;15.18;8.80;;;10.90;99.90;;;;;;4971413;28;20399;-56
2022/01/02 06:12:54;;;;;;;12.43;8.37;;;10.90;99.90;;;;;;4970972;28;20388;-54
2022/01/02 06:15:20;;;;;;;12.77;8.53;;;11.00;99.90;;;;;;4971076;28;20392;-52
2022/01/02 06:17:45;;;;;;;13.43;8.18;;;11.00;99.90;;;;;;4976317;28;20460;-54
2022/01/02 06:20:11;;;;;;;14.23;8.40;;;11.00;99.90;;;;;;4978088;28;20716;-55
2022/01/02 06:22:36;;;;;;;16.60;8.37;;;11.00;99.90;;;;;;4979240;28;20416;-55
2022/01/02 06:25:04;;;;;;;11.82;7.93;;;11.10;99.90;;;;;;4978181;28;20447;-50
2022/01/02 06:27:30;;;;;;;13.85;8.57;;;11.10;99.90;;;;;;4978028;28;20412;-53
2022/01/02 06:29:55;;;;;;;12.50;8.02;;;11.10;99.90;;;;;;4976468;28;20402;-51
2022/01/02 06:32:21;;;;;;;13.60;8.37;;;11.10;99.90;;;;;;4960671;29;20786;-54
2022/01/02 06:34:46;;;;;;;14.47;8.10;;;11.10;99.90;;;;;;4959967;29;20416;-54
2022/01/02 06:37:13;;;;;;;14.00;8.23;;;11.10;99.90;;;;;;4959860;29;20394;-50
2022/01/02 06:39:38;;;;;;;15.10;8.38;;;11.10;99.90;;;;;;4959675;29;20420;-53
2022/01/02 06:42:04;;;;;;;12.10;7.63;;;11.10;99.90;;;;;;4959879;29;20425;-54
2022/01/02 06:44:30;;;;;;;12.68;8.10;;;11.10;99.90;;;;;;4960390;29;20469;-53
2022/01/02 06:46:55;;;;;;;12.27;7.63;;;11.10;99.90;;;;;;4960483;29;20719;-55
2022/01/02 06:49:21;;;;;;;12.20;7.97;;;11.10;99.90;;;;;;4960930;29;20401;-51
2022/01/02 06:51:47;;;;;;;12.30;8.40;;;11.10;99.90;;;;;;4960238;29;20508;-53
2022/01/02 06:54:12;;;;;;;12.77;8.70;;;11.10;99.90;;;;;;4959026;29;20497;-51
2022/01/02 06:56:38;;;;;;;11.53;8.87;;;11.00;99.90;;;;;;4962624;28;20431;-49
2022/01/02 06:59:03;;;;;;;9.80;8.13;;;11.00;99.90;;;;;;4976164;28;20816;-52
2022/01/02 07:01:29;;;;;;;11.98;9.20;;;11.00;99.90;;;;;;4978422;28;20412;-53
2022/01/02 07:03:54;;;;;;;15.60;9.20;;;10.90;99.90;;;;;;4979167;28;20388;-51
2022/01/02 07:06:20;;;;;;;13.60;9.80;;;10.90;99.90;;;;;;4979044;28;20403;-49
2022/01/02 07:08:45;;;;;;;17.05;9.88;;;10.90;99.90;;;;;;4979041;28;20400;-56
2022/01/02 07:11:11;;;;;;;13.65;9.90;;;10.90;99.90;;;;;;4978957;28;20431;-55
2022/01/02 07:13:38;;;;;;;17.15;10.18;;;10.90;99.90;;;;;;4978178;28;20492;-49
2022/01/02 07:16:04;;;;;;;13.82;9.90;;;10.90;99.90;;;;;;4976836;28;20396;-51
2022/01/02 07:18:29;;;;;;;11.77;9.43;;;10.90;99.90;;;;;;4977854;28;20388;-49
2022/01/02 07:20:55;;;;;;;14.77;9.57;;;10.90;99.90;;;;;;4976864;28;20416;-49
2022/01/02 07:23:20;;;;;;;14.10;9.90;;;10.90;99.90;;;;;;4975341;28;20400;-49
2022/01/02 07:25:46;;;;;;;16.73;9.40;;;10.90;99.90;;;;;;4975016;28;20403;-50
2022/01/02 07:28:11;;;;;;;16.23;10.77;;;10.90;99.90;;;;;;4976320;28;20396;-51
2022/01/02 07:30:40;;;;;;;16.85;10.45;;;10.90;99.90;;;;;;4978587;28;20894;-50
2022/01/02 07:33:05;;;;;;;15.97;9.83;;;11.00;99.90;;;;;;4977898;28;20492;-54
2022/01/02 07:35:31;;;;;;;13.13;9.13;;;10.90;99.90;;;;;;4977674;28;20507;-55
2022/01/02 07:37:57;;;;;;;14.68;9.80;;;11.00;99.90;;;;;;4976633;28;20494;-52
2022/01/02 07:40:24;;;;;;;14.30;9.63;;;10.90;99.90;;;;;;4978826;28;20592;-53
2022/01/02 07:42:58;;;;;;;17.52;10.32;;;10.90;99.90;;;;;;4977888;28;20388;-51
2022/01/02 07:45:24;;;;;;;15.00;9.48;;;10.90;99.90;;;;;;4977318;28;20396;-51
2022/01/02 07:47:49;;;;;;;13.18;9.48;;;10.90;99.90;;;;;;4978172;28;20930;-55
2022/01/02 07:50:15;;;;;;;16.50;10.00;;;11.00;99.90;;;;;;4975992;28;20408;-53
2022/01/02 07:52:40;;;;;;;18.20;9.55;;;11.00;99.90;;;;;;4977086;28;20411;-54
2022/01/02 07:55:06;;;;;;;15.20;9.13;;;11.00;99.90;;;;;;4976439;28;20431;-53
2022/01/02 07:57:32;;;;;;;19.93;9.70;;;11.10;99.90;;;;;;4969688;28;20493;-50
2022/01/02 07:59:58;;;;;;;17.37;10.40;;;11.10;99.90;;;;;;4974133;28;20510;-51
2022/01/02 08:02:23;;;;;;;17.05;9.88;;;11.10;99.90;;;;;;4975022;28;20400;-50
2022/01/02 08:04:49;;;;;;;14.57;9.25;;;11.10;99.90;;;;;;4976135;28;20419;-55
2022/01/02 08:07:15;;;;;;;16.67;8.60;;;11.10;99.90;;;;;;4971774;28;20479;-52
2022/01/02 08:09:40;;;;;;;17.43;9.23;;;11.20;99.90;;;;;;4966605;28;20403;-52
2022/01/02 08:12:06;;;;;;;17.33;8.80;;;11.20;99.90;;;;;;4976490;28;20476;-51
2022/01/02 08:14:31;;;;;;;17.33;8.50;;;11.20;99.90;;;;;;4976767;28;20400;-54
2022/01/02 08:16:57;;;;;;;15.27;8.87;;;11.10;99.90;;;;;;4977694;28;20436;-55
2022/01/02 08:19:22;;;;;;;16.83;8.73;;;11.10;99.90;;;;;;4965812;28;20410;-51
2022/01/02 08:21:48;;;;;;;15.50;8.15;;;11.10;99.90;;;;;;4967467;28;20419;-56
2022/01/02 08:24:13;;;;;;;15.75;7.88;;;11.10;99.90;;;;;;4972060;28;20474;-52
2022/01/02 08:26:39;;;;;;;17.07;8.57;;;11.10;99.90;;;;;;4975486;28;20396;-54
2022/01/02 08:29:05;;;;;;;16.73;8.02;;;11.10;99.90;;;;;;4972700;28;20823;-53
2022/01/02 08:31:32;;;;;;;16.13;7.77;;;11.20;99.90;;;;;;4961022;28;20425;-53
2022/01/02 08:33:58;;;;;;;18.00;7.68;;;11.20;99.90;;;;;;4975418;28;20400;-50
2022/01/02 08:36:24;;;;;;;13.30;7.50;;;11.20;99.90;;;;;;4976266;28;20418;-51
2022/01/02 08:38:50;;;;;;;13.52;7.00;;;11.20;99.90;;;;;;4975681;28;20439;-52
2022/01/02 08:41:16;;;;;;;11.63;6.65;;;11.20;99.90;;;;;;4975691;28;20439;-51
2022/01/02 08:43:41;;;;;;;17.05;6.78;;;11.20;99.90;;;;;;4973294;28;20392;-54
2022/01/02 08:46:07;;;;;;;13.88;6.40;;;11.30;99.90;;;;;;4971305;28;20392;-53
2022/01/02 08:48:34;;;;;;;14.95;6.53;;;11.30;99.90;;;;;;4971828;28;20398;-49
2022/01/02 08:51:00;;;;;;;12.30;6.15;;;11.30;99.90;;;;;;4971751;28;20395;-50
2022/01/02 08:53:27;;;;;;;14.13;6.50;;;11.30;99.90;;;;;;4970574;28;20407;-48
2022/01/02 08:55:53;;;;;;;14.02;6.50;;;11.40;99.90;;;;;;4970364;28;20419;-51
2022/01/02 08:58:19;;;;;;;12.98;6.05;;;11.40;99.90;;;;;;4972918;28;20458;-49
2022/01/02 09:00:45;;;;;;;12.77;5.97;;;11.40;99.90;;;;;;4972298;28;20701;-50
2022/01/02 09:03:11;;;;;;;11.18;5.90;;;11.40;99.90;;;;;;4971084;28;20419;-52
2022/01/02 09:05:37;;;;;;;12.63;5.90;;;11.40;99.90;;;;;;4969504;28;20424;-53
2022/01/02 09:08:03;;;;;;;13.00;5.40;;;11.40;99.90;;;;;;4966662;28;20801;-54
2022/01/02 09:10:28;;;;;;;11.60;5.63;;;11.40;99.90;;;;;;4968731;28;20650;-52
2022/01/02 09:12:54;;;;;;;11.33;5.13;;;11.40;99.90;;;;;;4969052;28;20490;-53
2022/01/02 09:15:19;;;;;;;11.97;5.40;;;11.50;99.90;;;;;;4967919;28;20415;-54
2022/01/02 09:17:45;;;;;;;13.63;5.78;;;11.40;99.90;;;;;;4967248;28;20392;-49
2022/01/02 09:20:13;;;;;;;12.70;5.60;;;11.40;99.90;;;;;;4965243;28;20411;-55
2022/01/02 09:22:39;;;;;;;12.50;5.45;;;11.50;99.90;;;;;;4966909;28;20440;-54
2022/01/02 09:25:06;;;;;;;12.25;5.07;;;11.50;99.90;;;;;;4969614;28;20419;-54
2022/01/02 09:27:32;;;;;;;10.00;4.90;;;11.50;99.90;;;;;;4969922;28;20387;-50
2022/01/02 09:29:57;;;;;;;12.77;5.20;;;11.50;99.90;;;;;;4970830;28;20400;-51
2022/01/02 09:32:23;;;;;;;11.60;4.90;;;11.50;99.90;;;;;;4970147;28;20388;-53
2022/01/02 09:34:49;;;;;;;11.60;5.20;;;11.50;99.90;;;;;;4969969;28;20402;-51
2022/01/02 09:37:14;;;;;;;15.83;4.90;;;11.50;99.90;;;;;;4969545;28;20400;-55
2022/01/02 09:39:40;;;;;;;9.65;4.72;;;11.60;99.90;;;;;;4968174;28;20758;-52
2022/01/02 09:42:09;;;;;;;12.82;4.68;;;11.60;99.90;;;;;;4969844;28;20416;-49
2022/01/02 09:44:34;;;;;;;13.20;4.97;;;11.60;99.90;;;;;;4975658;28;20385;-53
2022/01/02 09:47:00;;;;;;;11.23;4.40;;;11.70;99.90;;;;;;4977735;28;20407;-53
2022/01/02 09:49:26;;;;;;;11.60;4.53;;;11.70;99.90;;;;;;4977912;28;20395;-54
2022/01/02 09:51:51;;;;;;;10.40;4.32;;;11.60;99.90;;;;;;4978700;28;20415;-50
2022/01/02 09:54:17;;;;;;;9.23;4.15;;;11.60;99.90;;;;;;4978658;28;20408;-48
2022/01/02 09:56:42;;;;;;;12.50;4.57;;;11.70;99.90;;;;;;4979603;28;20823;-50
2022/01/02 09:59:08;;;;;;;12.30;4.13;;;11.70;99.90;;;;;;4980164;28;20395;-49
2022/01/02 10:01:34;;;;;;;8.30;3.80;;;11.70;99.90;;;;;;4979254;28;20423;-52
2022/01/02 10:03:59;;;;;;;9.77;3.70;;;11.70;99.90;;;;;;4977979;28;20487;-53
2022/01/02 10:06:48;;;;;;;10.43;3.80;;;11.90;99.90;;;;;;4979326;28;20404;-52
2022/01/02 10:09:38;;;;;;;9.80;4.03;;;11.90;99.90;;;;;;4977777;28;20408;-50
2022/01/02 10:12:25;;;;;;;10.55;3.97;;;11.90;99.90;;;;;;4968961;28;21052;-52
2022/01/02 10:15:13;;;;;;;8.77;3.87;;;11.80;99.90;;;;;;4978412;28;20426;-50
2022/01/02 10:18:07;;;;;;;10.02;4.20;;;11.90;99.90;;;;;;4976490;28;20396;-49
2022/01/02 10:20:40;;;;;;;9.98;3.88;;;11.90;99.90;;;;;;4970544;28;20518;-51
2022/01/02 10:23:24;;;;;;;6.57;3.53;;;11.80;99.90;;;;;;4978296;28;20392;-51
2022/01/02 10:25:57;;;;;;;10.52;3.85;;;11.80;99.90;;;;;;4976604;28;20407;-51
2022/01/02 10:28:29;;;;;;;10.52;3.53;;;11.80;99.90;;;;;;4976845;28;20692;-53
2022/01/02 10:30:58;;;;;;;11.43;4.13;;;11.80;99.90;;;;;;4977945;28;20516;-49
2022/01/02 10:33:26;;;;;;;11.17;4.13;;;11.80;99.90;;;;;;4978236;28;20399;-48
2022/01/02 10:36:02;;;;;;;10.23;4.25;;;11.70;99.90;;;;;;4977486;28;21029;-49
2022/01/02 10:38:30;;;;;;;10.90;4.13;;;11.80;99.90;;;;;;4977001;28;20525;-53
2022/01/02 10:40:59;;;;;;;9.57;4.03;;;11.80;99.90;;;;;;4977139;28;20855;-53
2022/01/02 10:43:30;;;;;;;8.93;3.53;;;11.90;99.90;;;;;;4976543;28;20412;-50
2022/01/02 10:45:59;;;;;;;13.50;4.43;;;11.80;99.90;;;;;;4975817;28;20692;-52
2022/01/02 10:48:38;;;;;;;9.80;4.47;;;11.80;99.90;;;;;;4974218;28;20542;-51
2022/01/02 10:51:17;;;;;;;8.68;3.90;;;11.70;99.90;;;;;;4969287;28;20558;-49
2022/01/02 10:53:54;;;;;;;10.52;3.80;;;11.70;99.90;;;;;;4968918;28;20408;-51
2022/01/02 10:56:28;;;;;;;8.35;4.18;;;11.80;99.90;;;;;;4956566;28;21111;-51
2022/01/02 10:58:57;;;;;;;9.43;4.25;;;11.80;99.90;;;;;;4957829;29;20410;-55
2022/01/02 11:01:22;;;;;;;8.40;4.00;;;11.90;99.90;;;;;;4957212;29;20940;-54
2022/01/02 11:03:50;;;;;;;9.13;4.00;;;11.80;99.90;;;;;;4956640;29;20406;-52
2022/01/02 11:06:26;;;;;;;10.25;4.10;;;11.80;99.90;;;;;;4972046;28;20752;-56
2022/01/02 11:08:55;;;;;;;9.93;4.67;;;11.80;99.90;;;;;;4974365;28;20398;-52
2022/01/02 11:11:21;;;;;;;7.40;3.83;;;11.80;99.90;;;;;;4973816;28;20796;-55
2022/01/02 11:13:50;;;;;;;8.80;4.07;;;11.80;99.90;;;;;;4973930;28;20400;-54
2022/01/02 11:16:16;;;;;;;11.75;4.72;;;11.80;99.90;;;;;;4971929;28;20958;-52
2022/01/02 11:18:42;;;;;;;11.10;4.53;;;11.70;99.90;;;;;;4972602;28;20409;-52
2022/01/02 11:21:10;;;;;;;7.30;3.93;;;11.70;99.90;;;;;;4972430;28;20658;-53
2022/01/02 11:23:54;;;;;;;9.57;4.07;;;11.70;99.90;;;;;;4972060;28;20457;-51
2022/01/02 11:26:43;;;;;;;9.95;4.05;;;11.70;99.90;;;;;;4971663;28;20389;-50
2022/01/02 11:29:09;;;;;;;11.65;4.47;;;11.70;99.90;;;;;;4971694;28;20447;-55
2022/01/02 11:31:40;;;;;;;9.05;4.45;;;11.70;99.90;;;;;;4972036;28;20424;-52
2022/01/02 11:34:29;;;;;;;11.70;4.90;;;11.70;99.90;;;;;;4971344;28;20487;-50
2022/01/02 11:37:11;;;;;;;8.60;4.77;;;11.70;99.90;;;;;;4951075;29;20542;-54
2022/01/02 11:39:54;;;;;;;11.87;4.90;;;11.70;99.90;;;;;;4951306;29;20440;-51
2022/01/02 11:42:38;;;;;;;12.80;5.60;;;11.70;99.90;;;;;;4953938;29;20460;-54
2022/01/02 11:45:06;;;;;;;10.00;4.95;;;11.60;99.90;;;;;;4954486;29;20390;-54
2022/01/02 11:47:47;;;;;;;13.13;5.43;;;11.60;99.90;;;;;;4954780;29;20406;-50
2022/01/02 11:50:35;;;;;;;14.90;5.30;;;11.60;99.90;;;;;;4955809;29;20390;-55
2022/01/02 11:53:13;;;;;;;14.15;5.30;;;11.70;99.90;;;;;;4962065;28;20439;-54
2022/01/02 11:59:02;;;;;;;13.37;5.33;;;11.60;99.90;;;;;;4973979;28;20375;-54
2022/01/02 12:01:47;;;;;;;13.77;5.57;;;11.60;99.90;;;;;;4973925;28;20446;-53
2022/01/02 12:04:13;;;;;;;16.88;5.80;;;11.60;99.90;;;;;;4972972;28;20439;-52
2022/01/02 12:06:42;;;;;;;15.85;5.53;;;11.60;99.90;;;;;;4954179;28;20390;-51
2022/01/02 12:09:32;;;;;;;14.93;5.93;;;11.60;99.90;;;;;;4953405;29;20405;-54
2022/01/02 12:12:04;;;;;;;13.75;5.50;;;11.60;99.90;;;;;;4952319;29;20496;-53
2022/01/02 12:14:32;;;;;;;10.57;5.03;;;11.60;99.90;;;;;;4954223;29;20460;-56
2022/01/02 12:17:09;;;;;;;12.13;5.07;;;11.60;99.90;;;;;;4953610;29;20444;-51
2022/01/02 12:19:59;;;;;;;10.05;5.22;;;11.60;99.90;;;;;;4970033;28;20513;-54
2022/01/02 12:22:45;;;;;;;12.43;5.38;;;11.60;99.90;;;;;;4953798;29;20414;-55
2022/01/02 12:25:13;;;;;;;14.05;5.78;;;11.60;99.90;;;;;;4953899;29;20409;-52
2022/01/02 12:27:51;;;;;;;9.00;4.77;;;11.60;99.90;;;;;;4954470;29;20432;-55
2022/01/02 12:30:19;;;;;;;11.23;4.95;;;11.60;99.90;;;;;;4955066;29;21014;-52
2022/01/02 12:32:46;;;;;;;12.50;4.60;;;11.70;99.90;;;;;;4956144;29;20416;-55
2022/01/02 12:35:12;;;;;;;10.95;5.32;;;11.70;99.90;;;;;;4955193;29;20394;-54
2022/01/02 12:37:37;;;;;;;9.82;4.93;;;11.70;99.90;;;;;;4969980;28;20408;-55
2022/01/02 12:40:12;;;;;;;11.63;5.23;;;11.70;99.90;;;;;;4960097;28;20527;-55
2022/01/02 12:42:39;;;;;;;14.20;5.35;;;11.70;99.90;;;;;;4973326;28;20989;-53
2022/01/02 12:45:06;;;;;;;11.20;5.15;;;11.70;99.90;;;;;;4973060;28;20992;-53
2022/01/02 12:47:33;;;;;;;13.13;5.18;;;11.70;99.90;;;;;;4971516;28;21087;-53
2022/01/02 12:50:00;;;;;;;12.70;4.63;;;11.70;99.90;;;;;;4972442;28;20404;-49
2022/01/02 12:52:28;;;;;;;10.05;5.00;;;11.80;99.90;;;;;;4971411;28;20926;-51
2022/01/02 12:54:54;;;;;;;9.57;5.18;;;11.80;99.90;;;;;;4971584;28;20700;-54
2022/01/02 12:57:23;;;;;;;12.25;4.72;;;11.90;99.90;;;;;;4973121;28;20905;-54